Terminal Aerodrome Forecast
Issued by NWS Buffalo, NY

Home | Current Version | Previous Version | Text Only | Print | Product List | Glossary On
Versions: 1 2 3 4 5 6 7 8 9 10 11 12 13 14 15 16 17 18 19 20 21 22 23 24 25 26 27 28 29 30 31 32
000
FTUS41 KBUF 172127 AAB
TAFART
TAF AMD
KART 172127Z 1721/1818 22008KT 4SM -SN SCT007 OVC015
      TEMPO 1721/1723 2SM -SN BKN007
     FM180000 23010KT 4SM -SN SCT015 OVC025
     FM180300 21012G24KT P6SM VCSH OVC025
     FM180800 23013G27KT 2SM -SN BLSN OVC025
     FM181100 25012G22KT 1SM -SN BLSN OVC025
     FM181500 25010G19KT 2SM -SN OVC025=

USA.gov is the U.S. government's official web portal to all federal, state and local government web resources and services.